sensor_id;sensor_type;location;lat;lon;timestamp;temperature;humidity
2603;DHT22;1311;47.966;7.958;2023-07-08T00:00:14;23.10;28.20
2603;DHT22;1311;47.966;7.958;2023-07-08T00:02:42;23.30;2.50
2603;DHT22;1311;47.966;7.958;2023-07-08T00:05:09;23.50;1.00
2603;DHT22;1311;47.966;7.958;2023-07-08T00:07:36;23.60;1.00
2603;DHT22;1311;47.966;7.958;2023-07-08T00:10:11;23.50;1.00
2603;DHT22;1311;47.966;7.958;2023-07-08T00:12:38;23.60;1.00
2603;DHT22;1311;47.966;7.958;2023-07-08T00:15:06;23.60;1.00
2603;DHT22;1311;47.966;7.958;2023-07-08T00:17:33;23.60;1.00
2603;DHT22;1311;47.966;7.958;2023-07-08T00:19:59;23.50;1.00
2603;DHT22;1311;47.966;7.958;2023-07-08T00:22:26;23.50;1.00
2603;DHT22;1311;47.966;7.958;2023-07-08T00:24:53;23.40;1.00
2603;DHT22;1311;47.966;7.958;2023-07-08T00:27:21;23.40;1.00
2603;DHT22;1311;47.966;7.958;2023-07-08T00:29:48;23.40;1.00
2603;DHT22;1311;47.966;7.958;2023-07-08T00:32:15;23.40;1.00
2603;DHT22;1311;47.966;7.958;2023-07-08T00:34:42;23.40;1.00
2603;DHT22;1311;47.966;7.958;2023-07-08T00:37:11;23.40;1.00
2603;DHT22;1311;47.966;7.958;2023-07-08T00:39:38;23.30;1.00
2603;DHT22;1311;47.966;7.958;2023-07-08T00:42:14;23.40;1.00
2603;DHT22;1311;47.966;7.958;2023-07-08T00:44:43;23.50;1.00
2603;DHT22;1311;47.966;7.958;2023-07-08T00:47:12;23.60;1.00
2603;DHT22;1311;47.966;7.958;2023-07-08T00:49:42;23.60;1.00
2603;DHT22;1311;47.966;7.958;2023-07-08T00:52:24;23.80;1.00
2603;DHT22;1311;47.966;7.958;2023-07-08T00:54:53;23.70;1.00
2603;DHT22;1311;47.966;7.958;2023-07-08T00:59:53;23.70;1.00
2603;DHT22;1311;47.966;7.958;2023-07-08T01:02:24;23.70;1.00
2603;DHT22;1311;47.966;7.958;2023-07-08T01:04:56;23.50;1.00
2603;DHT22;1311;47.966;7.958;2023-07-08T01:07:25;23.30;1.00
2603;DHT22;1311;47.966;7.958;2023-07-08T01:09:57;23.20;1.00
2603;DHT22;1311;47.966;7.958;2023-07-08T01:12:27;23.20;1.00
2603;DHT22;1311;47.966;7.958;2023-07-08T01:14:58;23.20;1.00
2603;DHT22;1311;47.966;7.958;2023-07-08T01:17:28;23.30;1.00
2603;DHT22;1311;47.966;7.958;2023-07-08T01:19:58;23.30;1.00
2603;DHT22;1311;47.966;7.958;2023-07-08T01:22:26;23.10;1.00
2603;DHT22;1311;47.966;7.958;2023-07-08T01:24:58;23.00;1.00
2603;DHT22;1311;47.966;7.958;2023-07-08T01:27:29;23.00;1.00
2603;DHT22;1311;47.966;7.958;2023-07-08T01:29:57;23.20;1.00
2603;DHT22;1311;47.966;7.958;2023-07-08T01:32:24;23.20;1.00
2603;DHT22;1311;47.966;7.958;2023-07-08T01:34:52;23.20;1.00
2603;DHT22;1311;47.966;7.958;2023-07-08T01:37:32;23.30;1.00
2603;DHT22;1311;47.966;7.958;2023-07-08T01:40:14;23.30;1.00
2603;DHT22;1311;47.966;7.958;2023-07-08T01:42:41;23.40;1.00
2603;DHT22;1311;47.966;7.958;2023-07-08T01:45:11;23.40;1.00
2603;DHT22;1311;47.966;7.958;2023-07-08T01:47:37;23.30;1.00
2603;DHT22;1311;47.966;7.958;2023-07-08T01:50:05;23.30;1.00
2603;DHT22;1311;47.966;7.958;2023-07-08T01:52:34;23.30;1.00
2603;DHT22;1311;47.966;7.958;2023-07-08T01:55:01;23.30;1.00
2603;DHT22;1311;47.966;7.958;2023-07-08T01:57:28;23.30;1.00
2603;DHT22;1311;47.966;7.958;2023-07-08T01:59:55;23.20;1.00
2603;DHT22;1311;47.966;7.958;2023-07-08T02:02:21;23.20;1.00
2603;DHT22;1311;47.966;7.958;2023-07-08T02:04:49;23.30;1.00
2603;DHT22;1311;47.966;7.958;2023-07-08T02:07:17;23.20;1.00
2603;DHT22;1311;47.966;7.958;2023-07-08T02:09:45;23.40;1.00
2603;DHT22;1311;47.966;7.958;2023-07-08T02:12:11;23.50;1.00
2603;DHT22;1311;47.966;7.958;2023-07-08T02:14:38;23.50;1.00
2603;DHT22;1311;47.966;7.958;2023-07-08T02:17:05;23.50;1.00
2603;DHT22;1311;47.966;7.958;2023-07-08T02:19:32;23.50;1.00
2603;DHT22;1311;47.966;7.958;2023-07-08T02:21:58;23.50;1.00
2603;DHT22;1311;47.966;7.958;2023-07-08T02:24:25;23.50;1.00
2603;DHT22;1311;47.966;7.958;2023-07-08T02:26:53;23.50;1.00
2603;DHT22;1311;47.966;7.958;2023-07-08T02:29:20;23.50;1.00
2603;DHT22;1311;47.966;7.958;2023-07-08T02:31:47;23.40;1.00
2603;DHT22;1311;47.966;7.958;2023-07-08T02:34:13;23.50;1.00
2603;DHT22;1311;47.966;7.958;2023-07-08T02:36:40;23.50;1.00
2603;DHT22;1311;47.966;7.958;2023-07-08T02:39:07;23.50;1.00
2603;DHT22;1311;47.966;7.958;2023-07-08T02:41:34;23.40;1.00
2603;DHT22;1311;47.966;7.958;2023-07-08T02:44:02;23.30;1.00
2603;DHT22;1311;47.966;7.958;2023-07-08T02:46:29;23.30;1.00
2603;DHT22;1311;47.966;7.958;2023-07-08T02:48:55;23.20;1.00
2603;DHT22;1311;47.966;7.958;2023-07-08T02:51:22;23.20;1.00
2603;DHT22;1311;47.966;7.958;2023-07-08T02:53:49;23.10;1.00
2603;DHT22;1311;47.966;7.958;2023-07-08T02:56:16;23.10;1.00
2603;DHT22;1311;47.966;7.958;2023-07-08T02:58:43;23.00;1.00
2603;DHT22;1311;47.966;7.958;2023-07-08T03:01:11;22.90;1.00
2603;DHT22;1311;47.966;7.958;2023-07-08T03:03:42;22.80;1.00
2603;DHT22;1311;47.966;7.958;2023-07-08T03:06:10;22.80;1.00
2603;DHT22;1311;47.966;7.958;2023-07-08T03:08:37;22.80;1.00
2603;DHT22;1311;47.966;7.958;2023-07-08T03:11:05;22.80;1.00
2603;DHT22;1311;47.966;7.958;2023-07-08T03:13:33;22.70;1.00
2603;DHT22;1311;47.966;7.958;2023-07-08T03:16:01;22.80;1.00
2603;DHT22;1311;47.966;7.958;2023-07-08T03:18:29;22.70;1.00
2603;DHT22;1311;47.966;7.958;2023-07-08T03:20:57;22.70;52.80
2603;DHT22;1311;47.966;7.958;2023-07-08T03:23:24;22.70;91.60
2603;DHT22;1311;47.966;7.958;2023-07-08T03:25:51;22.70;99.90
2603;DHT22;1311;47.966;7.958;2023-07-08T03:28:18;22.70;99.90
2603;DHT22;1311;47.966;7.958;2023-07-08T03:30:50;22.80;99.90
2603;DHT22;1311;47.966;7.958;2023-07-08T03:33:17;22.70;99.90
2603;DHT22;1311;47.966;7.958;2023-07-08T03:35:45;22.70;99.90
2603;DHT22;1311;47.966;7.958;2023-07-08T03:38:12;22.80;99.90
2603;DHT22;1311;47.966;7.958;2023-07-08T03:40:39;22.80;99.90
2603;DHT22;1311;47.966;7.958;2023-07-08T03:43:05;22.90;99.90
2603;DHT22;1311;47.966;7.958;2023-07-08T03:45:32;22.90;99.90
2603;DHT22;1311;47.966;7.958;2023-07-08T03:47:59;23.10;99.90
2603;DHT22;1311;47.966;7.958;2023-07-08T03:50:26;23.10;99.90
2603;DHT22;1311;47.966;7.958;2023-07-08T03:52:55;23.20;99.90
2603;DHT22;1311;47.966;7.958;2023-07-08T03:55:22;23.10;99.90
2603;DHT22;1311;47.966;7.958;2023-07-08T03:57:49;23.00;99.90
2603;DHT22;1311;47.966;7.958;2023-07-08T04:00:16;22.90;99.90
2603;DHT22;1311;47.966;7.958;2023-07-08T04:02:44;22.80;1.00
2603;DHT22;1311;47.966;7.958;2023-07-08T04:05:13;22.70;1.00
2603;DHT22;1311;47.966;7.958;2023-07-08T04:07:40;22.70;1.00
2603;DHT22;1311;47.966;7.958;2023-07-08T04:10:09;22.70;1.00
2603;DHT22;1311;47.966;7.958;2023-07-08T04:12:36;22.70;1.00
2603;DHT22;1311;47.966;7.958;2023-07-08T04:15:04;22.60;1.00
2603;DHT22;1311;47.966;7.958;2023-07-08T04:17:31;22.60;1.00
2603;DHT22;1311;47.966;7.958;2023-07-08T04:19:58;22.40;99.90
2603;DHT22;1311;47.966;7.958;2023-07-08T04:22:27;22.30;1.00
2603;DHT22;1311;47.966;7.958;2023-07-08T04:24:53;22.20;1.00
2603;DHT22;1311;47.966;7.958;2023-07-08T04:27:22;22.10;99.90
2603;DHT22;1311;47.966;7.958;2023-07-08T04:29:48;22.00;1.00
2603;DHT22;1311;47.966;7.958;2023-07-08T04:32:15;21.80;99.90
2603;DHT22;1311;47.966;7.958;2023-07-08T04:34:42;21.60;99.90
2603;DHT22;1311;47.966;7.958;2023-07-08T04:37:11;21.50;1.00
2603;DHT22;1311;47.966;7.958;2023-07-08T04:39:37;21.30;1.00
2603;DHT22;1311;47.966;7.958;2023-07-08T04:42:04;21.20;1.00
2603;DHT22;1311;47.966;7.958;2023-07-08T04:44:33;21.10;1.00
2603;DHT22;1311;47.966;7.958;2023-07-08T04:47:00;21.10;1.50
2603;DHT22;1311;47.966;7.958;2023-07-08T04:49:27;20.90;72.10
2603;DHT22;1311;47.966;7.958;2023-07-08T04:51:59;20.80;99.90
2603;DHT22;1311;47.966;7.958;2023-07-08T04:54:27;20.60;99.90
2603;DHT22;1311;47.966;7.958;2023-07-08T04:56:54;20.60;99.90
2603;DHT22;1311;47.966;7.958;2023-07-08T04:59:26;20.60;99.90
2603;DHT22;1311;47.966;7.958;2023-07-08T05:01:54;20.50;99.90
2603;DHT22;1311;47.966;7.958;2023-07-08T05:04:22;20.30;99.90
2603;DHT22;1311;47.966;7.958;2023-07-08T05:06:49;20.20;99.90
2603;DHT22;1311;47.966;7.958;2023-07-08T05:09:16;20.10;99.90
2603;DHT22;1311;47.966;7.958;2023-07-08T05:11:43;19.90;99.90
2603;DHT22;1311;47.966;7.958;2023-07-08T05:14:11;19.80;99.90
2603;DHT22;1311;47.966;7.958;2023-07-08T05:16:38;19.80;99.90
2603;DHT22;1311;47.966;7.958;2023-07-08T05:19:07;19.70;99.90
2603;DHT22;1311;47.966;7.958;2023-07-08T05:21:34;19.70;99.90
2603;DHT22;1311;47.966;7.958;2023-07-08T05:24:01;19.50;99.90
2603;DHT22;1311;47.966;7.958;2023-07-08T05:26:28;19.50;99.90
2603;DHT22;1311;47.966;7.958;2023-07-08T05:28:55;19.30;99.90
2603;DHT22;1311;47.966;7.958;2023-07-08T05:31:22;19.20;99.90
2603;DHT22;1311;47.966;7.958;2023-07-08T05:33:48;19.10;99.90
2603;DHT22;1311;47.966;7.958;2023-07-08T05:36:17;19.00;99.90
2603;DHT22;1311;47.966;7.958;2023-07-08T05:38:43;19.00;99.90
2603;DHT22;1311;47.966;7.958;2023-07-08T05:41:10;19.00;99.90
2603;DHT22;1311;47.966;7.958;2023-07-08T05:43:37;18.90;99.90
2603;DHT22;1311;47.966;7.958;2023-07-08T05:46:04;19.00;99.90
2603;DHT22;1311;47.966;7.958;2023-07-08T05:48:31;19.00;99.90
2603;DHT22;1311;47.966;7.958;2023-07-08T05:50:58;19.00;99.90
2603;DHT22;1311;47.966;7.958;2023-07-08T05:53:26;19.00;99.90
2603;DHT22;1311;47.966;7.958;2023-07-08T05:55:52;19.10;99.90
2603;DHT22;1311;47.966;7.958;2023-07-08T05:58:19;19.10;99.90
2603;DHT22;1311;47.966;7.958;2023-07-08T06:00:46;19.20;99.90
2603;DHT22;1311;47.966;7.958;2023-07-08T06:03:13;19.20;99.90
2603;DHT22;1311;47.966;7.958;2023-07-08T06:05:39;19.30;99.90
2603;DHT22;1311;47.966;7.958;2023-07-08T06:08:06;19.30;99.90
2603;DHT22;1311;47.966;7.958;2023-07-08T06:10:41;19.30;99.90
2603;DHT22;1311;47.966;7.958;2023-07-08T06:13:08;19.40;99.90
2603;DHT22;1311;47.966;7.958;2023-07-08T06:15:35;19.50;99.90
2603;DHT22;1311;47.966;7.958;2023-07-08T06:18:02;19.50;99.90
2603;DHT22;1311;47.966;7.958;2023-07-08T06:20:29;19.60;99.90
2603;DHT22;1311;47.966;7.958;2023-07-08T06:22:56;19.80;99.90
2603;DHT22;1311;47.966;7.958;2023-07-08T06:25:23;20.00;99.90
2603;DHT22;1311;47.966;7.958;2023-07-08T06:27:51;20.20;99.90
2603;DHT22;1311;47.966;7.958;2023-07-08T06:30:17;20.40;99.90
2603;DHT22;1311;47.966;7.958;2023-07-08T06:32:44;20.60;99.90
2603;DHT22;1311;47.966;7.958;2023-07-08T06:35:11;20.80;99.90
2603;DHT22;1311;47.966;7.958;2023-07-08T06:37:38;21.00;99.90
2603;DHT22;1311;47.966;7.958;2023-07-08T06:40:06;21.20;99.90
2603;DHT22;1311;47.966;7.958;2023-07-08T06:42:32;21.20;99.90
2603;DHT22;1311;47.966;7.958;2023-07-08T06:45:01;21.10;99.90
2603;DHT22;1311;47.966;7.958;2023-07-08T06:47:29;21.20;99.90
2603;DHT22;1311;47.966;7.958;2023-07-08T06:49:56;21.40;99.90
2603;DHT22;1311;47.966;7.958;2023-07-08T06:52:22;21.60;99.90
2603;DHT22;1311;47.966;7.958;2023-07-08T06:54:49;21.70;64.70
2603;DHT22;1311;47.966;7.958;2023-07-08T06:57:16;21.80;2.70
2603;DHT22;1311;47.966;7.958;2023-07-08T06:59:43;21.80;1.00
2603;DHT22;1311;47.966;7.958;2023-07-08T07:02:11;21.90;1.00
2603;DHT22;1311;47.966;7.958;2023-07-08T07:04:38;22.00;1.00
2603;DHT22;1311;47.966;7.958;2023-07-08T07:07:05;22.10;99.90
2603;DHT22;1311;47.966;7.958;2023-07-08T07:09:32;22.40;1.00
2603;DHT22;1311;47.966;7.958;2023-07-08T07:11:59;22.60;1.00
2603;DHT22;1311;47.966;7.958;2023-07-08T07:14:25;22.90;99.90
2603;DHT22;1311;47.966;7.958;2023-07-08T07:16:52;23.10;1.00
2603;DHT22;1311;47.966;7.958;2023-07-08T07:19:20;23.00;1.00
2603;DHT22;1311;47.966;7.958;2023-07-08T07:21:47;23.00;99.90
2603;DHT22;1311;47.966;7.958;2023-07-08T07:24:14;23.30;1.00
2603;DHT22;1311;47.966;7.958;2023-07-08T07:26:41;23.50;1.00
2603;DHT22;1311;47.966;7.958;2023-07-08T07:29:08;23.50;1.00
2603;DHT22;1311;47.966;7.958;2023-07-08T07:31:34;23.30;99.90
2603;DHT22;1311;47.966;7.958;2023-07-08T07:34:01;23.00;1.00
2603;DHT22;1311;47.966;7.958;2023-07-08T07:36:30;22.80;1.00
2603;DHT22;1311;47.966;7.958;2023-07-08T07:38:56;22.90;1.00
2603;DHT22;1311;47.966;7.958;2023-07-08T07:41:23;22.70;99.90
2603;DHT22;1311;47.966;7.958;2023-07-08T07:43:50;22.80;99.90
2603;DHT22;1311;47.966;7.958;2023-07-08T07:46:16;22.80;1.00
2603;DHT22;1311;47.966;7.958;2023-07-08T07:48:43;22.60;99.90
2603;DHT22;1311;47.966;7.958;2023-07-08T07:51:10;22.60;1.00
2603;DHT22;1311;47.966;7.958;2023-07-08T07:53:39;22.70;99.90
2603;DHT22;1311;47.966;7.958;2023-07-08T07:56:06;22.70;99.90
2603;DHT22;1311;47.966;7.958;2023-07-08T07:58:33;22.60;1.00
2603;DHT22;1311;47.966;7.958;2023-07-08T08:01:00;22.70;1.00
2603;DHT22;1311;47.966;7.958;2023-07-08T08:03:27;22.80;1.00
2603;DHT22;1311;47.966;7.958;2023-07-08T08:05:54;22.80;1.00
2603;DHT22;1311;47.966;7.958;2023-07-08T08:08:20;23.10;1.00
2603;DHT22;1311;47.966;7.958;2023-07-08T08:10:49;23.20;1.00
2603;DHT22;1311;47.966;7.958;2023-07-08T08:13:16;22.90;1.00
2603;DHT22;1311;47.966;7.958;2023-07-08T08:15:43;23.50;1.00
2603;DHT22;1311;47.966;7.958;2023-07-08T08:18:09;23.80;1.00
2603;DHT22;1311;47.966;7.958;2023-07-08T08:20:36;24.10;1.00
2603;DHT22;1311;47.966;7.958;2023-07-08T08:23:05;24.30;1.00
2603;DHT22;1311;47.966;7.958;2023-07-08T08:25:32;24.10;1.00
2603;DHT22;1311;47.966;7.958;2023-07-08T08:28:00;23.80;1.00
2603;DHT22;1311;47.966;7.958;2023-07-08T08:30:27;24.20;1.00
2603;DHT22;1311;47.966;7.958;2023-07-08T08:32:53;24.30;1.00
2603;DHT22;1311;47.966;7.958;2023-07-08T08:35:20;24.50;1.00
2603;DHT22;1311;47.966;7.958;2023-07-08T08:37:47;24.40;1.00
2603;DHT22;1311;47.966;7.958;2023-07-08T08:40:16;24.70;1.00
2603;DHT22;1311;47.966;7.958;2023-07-08T08:42:45;24.50;1.00
2603;DHT22;1311;47.966;7.958;2023-07-08T08:45:17;24.70;1.00
2603;DHT22;1311;47.966;7.958;2023-07-08T08:47:48;24.70;1.00
2603;DHT22;1311;47.966;7.958;2023-07-08T08:50:31;25.10;1.00
2603;DHT22;1311;47.966;7.958;2023-07-08T08:53:00;25.00;1.00
2603;DHT22;1311;47.966;7.958;2023-07-08T08:55:28;25.00;1.00
2603;DHT22;1311;47.966;7.958;2023-07-08T08:58:04;25.50;1.00
2603;DHT22;1311;47.966;7.958;2023-07-08T09:00:45;25.20;99.90
2603;DHT22;1311;47.966;7.958;2023-07-08T09:03:16;25.00;1.00
2603;DHT22;1311;47.966;7.958;2023-07-08T09:05:45;25.50;1.00
2603;DHT22;1311;47.966;7.958;2023-07-08T09:08:15;25.70;99.90
2603;DHT22;1311;47.966;7.958;2023-07-08T09:10:45;25.60;1.00
2603;DHT22;1311;47.966;7.958;2023-07-08T09:13:18;26.10;1.00
2603;DHT22;1311;47.966;7.958;2023-07-08T09:15:56;26.50;99.90
2603;DHT22;1311;47.966;7.958;2023-07-08T09:18:29;26.70;99.90
2603;DHT22;1311;47.966;7.958;2023-07-08T09:23:33;27.00;1.00
2603;DHT22;1311;47.966;7.958;2023-07-08T09:26:06;27.20;1.00
2603;DHT22;1311;47.966;7.958;2023-07-08T09:28:38;27.30;99.90
2603;DHT22;1311;47.966;7.958;2023-07-08T09:31:21;27.40;1.00
2603;DHT22;1311;47.966;7.958;2023-07-08T09:33:51;27.10;1.00
2603;DHT22;1311;47.966;7.958;2023-07-08T09:36:21;26.90;99.90
2603;DHT22;1311;47.966;7.958;2023-07-08T09:38:49;26.90;99.90
2603;DHT22;1311;47.966;7.958;2023-07-08T09:41:29;26.80;33.20
2603;DHT22;1311;47.966;7.958;2023-07-08T09:44:13;26.90;1.00
2603;DHT22;1311;47.966;7.958;2023-07-08T09:46:42;27.10;1.00
2603;DHT22;1311;47.966;7.958;2023-07-08T09:49:23;27.30;99.90
2603;DHT22;1311;47.966;7.958;2023-07-08T09:51:51;27.60;77.40
2603;DHT22;1311;47.966;7.958;2023-07-08T09:54:19;27.80;1.00
2603;DHT22;1311;47.966;7.958;2023-07-08T09:56:54;28.20;1.00
2603;DHT22;1311;47.966;7.958;2023-07-08T09:59:25;28.50;1.00
2603;DHT22;1311;47.966;7.958;2023-07-08T10:02:00;28.70;1.00
2603;DHT22;1311;47.966;7.958;2023-07-08T10:04:26;29.00;99.90
2603;DHT22;1311;47.966;7.958;2023-07-08T10:06:54;28.90;99.90
2603;DHT22;1311;47.966;7.958;2023-07-08T10:09:24;28.80;99.90
2603;DHT22;1311;47.966;7.958;2023-07-08T10:11:56;28.50;1.00
2603;DHT22;1311;47.966;7.958;2023-07-08T10:14:26;28.60;1.00
2603;DHT22;1311;47.966;7.958;2023-07-08T10:16:54;28.90;1.00
2603;DHT22;1311;47.966;7.958;2023-07-08T10:19:23;29.10;99.90
2603;DHT22;1311;47.966;7.958;2023-07-08T10:22:08;29.10;99.90
2603;DHT22;1311;47.966;7.958;2023-07-08T10:24:48;29.20;99.90
2603;DHT22;1311;47.966;7.958;2023-07-08T10:27:23;29.30;99.90
2603;DHT22;1311;47.966;7.958;2023-07-08T10:29:59;29.10;99.90
2603;DHT22;1311;47.966;7.958;2023-07-08T10:32:37;28.90;99.90
2603;DHT22;1311;47.966;7.958;2023-07-08T10:35:15;28.90;99.90
2603;DHT22;1311;47.966;7.958;2023-07-08T10:37:55;29.20;99.90
2603;DHT22;1311;47.966;7.958;2023-07-08T10:40:34;29.40;99.90
2603;DHT22;1311;47.966;7.958;2023-07-08T10:43:22;29.60;99.90
2603;DHT22;1311;47.966;7.958;2023-07-08T10:46:12;29.70;99.90
2603;DHT22;1311;47.966;7.958;2023-07-08T10:49:00;30.10;99.90
2603;DHT22;1311;47.966;7.958;2023-07-08T10:51:37;30.20;99.90
2603;DHT22;1311;47.966;7.958;2023-07-08T10:54:22;30.40;99.90
2603;DHT22;1311;47.966;7.958;2023-07-08T10:56:54;30.50;99.90
2603;DHT22;1311;47.966;7.958;2023-07-08T10:59:38;30.30;99.90
2603;DHT22;1311;47.966;7.958;2023-07-08T11:02:22;30.00;99.90
2603;DHT22;1311;47.966;7.958;2023-07-08T11:05:01;29.70;99.90
2603;DHT22;1311;47.966;7.958;2023-07-08T11:07:35;29.50;99.90
2603;DHT22;1311;47.966;7.958;2023-07-08T11:10:11;29.40;96.60
2603;DHT22;1311;47.966;7.958;2023-07-08T11:12:44;29.50;99.10
2603;DHT22;1311;47.966;7.958;2023-07-08T11:15:16;29.40;95.50
2603;DHT22;1311;47.966;7.958;2023-07-08T11:17:49;29.60;93.20
2603;DHT22;1311;47.966;7.958;2023-07-08T11:20:21;29.90;81.60
2603;DHT22;1311;47.966;7.958;2023-07-08T11:22:53;29.50;91.60
2603;DHT22;1311;47.966;7.958;2023-07-08T11:25:24;29.40;90.80
2603;DHT22;1311;47.966;7.958;2023-07-08T11:27:53;29.50;76.70
2603;DHT22;1311;47.966;7.958;2023-07-08T11:30:23;29.80;57.50
2603;DHT22;1311;47.966;7.958;2023-07-08T11:32:57;30.10;93.80
2603;DHT22;1311;47.966;7.958;2023-07-08T11:35:35;30.30;99.90
2603;DHT22;1311;47.966;7.958;2023-07-08T11:38:04;30.00;30.10
2603;DHT22;1311;47.966;7.958;2023-07-08T11:40:32;30.00;43.60
2603;DHT22;1311;47.966;7.958;2023-07-08T11:43:05;30.00;55.70
2603;DHT22;1311;47.966;7.958;2023-07-08T11:45:37;30.00;40.80
2603;DHT22;1311;47.966;7.958;2023-07-08T11:48:11;30.20;67.00
2603;DHT22;1311;47.966;7.958;2023-07-08T11:50:41;30.20;43.90
2603;DHT22;1311;47.966;7.958;2023-07-08T11:53:11;30.10;58.60
2603;DHT22;1311;47.966;7.958;2023-07-08T11:55:44;30.10;79.30
2603;DHT22;1311;47.966;7.958;2023-07-08T11:58:19;30.20;80.70
2603;DHT22;1311;47.966;7.958;2023-07-08T12:00:54;30.20;77.90
2603;DHT22;1311;47.966;7.958;2023-07-08T12:03:31;30.30;60.00
2603;DHT22;1311;47.966;7.958;2023-07-08T12:05:59;30.20;65.80
2603;DHT22;1311;47.966;7.958;2023-07-08T12:08:36;30.30;55.20
2603;DHT22;1311;47.966;7.958;2023-07-08T12:11:10;30.10;45.60
2603;DHT22;1311;47.966;7.958;2023-07-08T12:13:38;30.00;33.10
2603;DHT22;1311;47.966;7.958;2023-07-08T12:16:09;29.70;47.00
2603;DHT22;1311;47.966;7.958;2023-07-08T12:18:39;29.40;53.90
2603;DHT22;1311;47.966;7.958;2023-07-08T12:21:12;29.50;90.00
2603;DHT22;1311;47.966;7.958;2023-07-08T12:23:45;29.70;95.90
2603;DHT22;1311;47.966;7.958;2023-07-08T12:26:13;29.80;95.80
2603;DHT22;1311;47.966;7.958;2023-07-08T12:28:40;30.00;99.90
2603;DHT22;1311;47.966;7.958;2023-07-08T12:31:14;30.00;88.70
2603;DHT22;1311;47.966;7.958;2023-07-08T12:33:42;30.00;78.40
2603;DHT22;1311;47.966;7.958;2023-07-08T12:36:13;30.10;92.20
2603;DHT22;1311;47.966;7.958;2023-07-08T12:38:43;30.10;64.10
2603;DHT22;1311;47.966;7.958;2023-07-08T12:41:14;30.10;65.30
2603;DHT22;1311;47.966;7.958;2023-07-08T12:43:42;30.30;85.60
2603;DHT22;1311;47.966;7.958;2023-07-08T12:46:09;30.40;45.90
2603;DHT22;1311;47.966;7.958;2023-07-08T12:48:36;30.40;23.10
2603;DHT22;1311;47.966;7.958;2023-07-08T12:51:04;30.50;1.00
2603;DHT22;1311;47.966;7.958;2023-07-08T12:53:31;30.50;1.00
2603;DHT22;1311;47.966;7.958;2023-07-08T12:56:00;30.70;26.80
2603;DHT22;1311;47.966;7.958;2023-07-08T12:58:30;30.80;8.70
2603;DHT22;1311;47.966;7.958;2023-07-08T13:01:01;30.80;17.50
2603;DHT22;1311;47.966;7.958;2023-07-08T13:03:30;30.80;17.00
2603;DHT22;1311;47.966;7.958;2023-07-08T13:06:01;30.50;2.50
2603;DHT22;1311;47.966;7.958;2023-07-08T13:08:36;30.70;2.10
2603;DHT22;1311;47.966;7.958;2023-07-08T13:11:03;30.70;1.00
2603;DHT22;1311;47.966;7.958;2023-07-08T13:13:35;30.90;1.00
2603;DHT22;1311;47.966;7.958;2023-07-08T13:16:04;31.10;1.00
2603;DHT22;1311;47.966;7.958;2023-07-08T13:18:33;31.10;1.00
2603;DHT22;1311;47.966;7.958;2023-07-08T13:21:02;31.00;1.00
2603;DHT22;1311;47.966;7.958;2023-07-08T13:23:30;31.00;1.00
2603;DHT22;1311;47.966;7.958;2023-07-08T13:25:57;31.10;1.00
2603;DHT22;1311;47.966;7.958;2023-07-08T13:28:25;31.20;1.00
2603;DHT22;1311;47.966;7.958;2023-07-08T13:30:55;31.40;1.00
2603;DHT22;1311;47.966;7.958;2023-07-08T13:33:22;31.50;1.00
2603;DHT22;1311;47.966;7.958;2023-07-08T13:35:51;31.60;1.00
2603;DHT22;1311;47.966;7.958;2023-07-08T13:38:19;31.70;1.00
2603;DHT22;1311;47.966;7.958;2023-07-08T13:40:48;31.60;1.00
2603;DHT22;1311;47.966;7.958;2023-07-08T13:43:15;31.60;1.00
2603;DHT22;1311;47.966;7.958;2023-07-08T13:45:45;31.50;1.00
2603;DHT22;1311;47.966;7.958;2023-07-08T13:48:24;31.60;1.00
2603;DHT22;1311;47.966;7.958;2023-07-08T13:50:56;31.70;1.00
2603;DHT22;1311;47.966;7.958;2023-07-08T13:53:26;31.90;1.00
2603;DHT22;1311;47.966;7.958;2023-07-08T13:55:58;31.80;1.00
2603;DHT22;1311;47.966;7.958;2023-07-08T13:58:30;31.60;1.00
2603;DHT22;1311;47.966;7.958;2023-07-08T14:01:08;31.60;1.00
2603;DHT22;1311;47.966;7.958;2023-07-08T14:03:44;31.60;1.00
2603;DHT22;1311;47.966;7.958;2023-07-08T14:06:15;31.50;1.00
2603;DHT22;1311;47.966;7.958;2023-07-08T14:08:42;31.60;1.00
2603;DHT22;1311;47.966;7.958;2023-07-08T14:11:09;31.70;1.00
2603;DHT22;1311;47.966;7.958;2023-07-08T14:13:41;31.70;1.00
2603;DHT22;1311;47.966;7.958;2023-07-08T14:16:20;31.80;1.00
2603;DHT22;1311;47.966;7.958;2023-07-08T14:18:53;31.90;1.00
2603;DHT22;1311;47.966;7.958;2023-07-08T14:21:22;31.90;1.00
2603;DHT22;1311;47.966;7.958;2023-07-08T14:23:49;31.80;1.00
2603;DHT22;1311;47.966;7.958;2023-07-08T14:26:16;31.80;1.00
2603;DHT22;1311;47.966;7.958;2023-07-08T14:28:43;31.70;1.00
2603;DHT22;1311;47.966;7.958;2023-07-08T14:31:10;31.80;1.00
2603;DHT22;1311;47.966;7.958;2023-07-08T14:33:38;31.80;1.00
2603;DHT22;1311;47.966;7.958;2023-07-08T14:36:15;31.80;1.00
2603;DHT22;1311;47.966;7.958;2023-07-08T14:38:42;31.60;1.00
2603;DHT22;1311;47.966;7.958;2023-07-08T14:41:09;31.50;1.00
2603;DHT22;1311;47.966;7.958;2023-07-08T14:43:36;31.50;1.00
2603;DHT22;1311;47.966;7.958;2023-07-08T14:46:04;31.50;1.00
2603;DHT22;1311;47.966;7.958;2023-07-08T14:48:33;31.50;1.00
2603;DHT22;1311;47.966;7.958;2023-07-08T15:00:59;31.50;1.00
2603;DHT22;1311;47.966;7.958;2023-07-08T15:03:28;31.50;1.00
2603;DHT22;1311;47.966;7.958;2023-07-08T15:05:55;31.30;1.00
2603;DHT22;1311;47.966;7.958;2023-07-08T15:08:22;31.30;1.00
2603;DHT22;1311;47.966;7.958;2023-07-08T15:14:51;31.50;1.00
2603;DHT22;1311;47.966;7.958;2023-07-08T15:17:22;31.60;1.00
2603;DHT22;1311;47.966;7.958;2023-07-08T15:19:48;31.70;1.00
2603;DHT22;1311;47.966;7.958;2023-07-08T15:22:15;31.60;1.00
2603;DHT22;1311;47.966;7.958;2023-07-08T15:24:42;31.50;1.00
2603;DHT22;1311;47.966;7.958;2023-07-08T15:27:10;31.50;1.00
2603;DHT22;1311;47.966;7.958;2023-07-08T15:29:37;31.70;1.00
2603;DHT22;1311;47.966;7.958;2023-07-08T15:32:09;31.70;1.00
2603;DHT22;1311;47.966;7.958;2023-07-08T15:34:49;31.40;1.00
2603;DHT22;1311;47.966;7.958;2023-07-08T15:37:15;31.60;1.00
2603;DHT22;1311;47.966;7.958;2023-07-08T15:39:42;31.70;1.00
2603;DHT22;1311;47.966;7.958;2023-07-08T15:42:11;31.60;1.00
2603;DHT22;1311;47.966;7.958;2023-07-08T15:44:38;31.70;1.00
2603;DHT22;1311;47.966;7.958;2023-07-08T15:47:09;31.70;1.00
2603;DHT22;1311;47.966;7.958;2023-07-08T15:49:38;31.70;1.00
2603;DHT22;1311;47.966;7.958;2023-07-08T15:52:07;31.50;1.00
2603;DHT22;1311;47.966;7.958;2023-07-08T15:54:36;31.50;1.00
2603;DHT22;1311;47.966;7.958;2023-07-08T15:57:03;31.50;1.00
2603;DHT22;1311;47.966;7.958;2023-07-08T15:59:31;31.50;1.00
2603;DHT22;1311;47.966;7.958;2023-07-08T16:02:16;31.40;1.00
2603;DHT22;1311;47.966;7.958;2023-07-08T16:04:47;31.30;1.00
2603;DHT22;1311;47.966;7.958;2023-07-08T16:07:15;31.30;1.00
2603;DHT22;1311;47.966;7.958;2023-07-08T16:09:42;31.40;1.00
2603;DHT22;1311;47.966;7.958;2023-07-08T16:12:11;31.30;1.00
2603;DHT22;1311;47.966;7.958;2023-07-08T16:14:38;31.20;1.00
2603;DHT22;1311;47.966;7.958;2023-07-08T16:17:08;31.30;1.00
2603;DHT22;1311;47.966;7.958;2023-07-08T16:19:35;31.10;1.00
2603;DHT22;1311;47.966;7.958;2023-07-08T16:22:03;31.10;1.00
2603;DHT22;1311;47.966;7.958;2023-07-08T16:24:32;30.90;1.00
2603;DHT22;1311;47.966;7.958;2023-07-08T16:26:59;30.80;1.00
2603;DHT22;1311;47.966;7.958;2023-07-08T16:29:27;30.90;1.00
2603;DHT22;1311;47.966;7.958;2023-07-08T16:31:54;30.90;1.00
2603;DHT22;1311;47.966;7.958;2023-07-08T16:34:20;30.90;1.00
2603;DHT22;1311;47.966;7.958;2023-07-08T16:36:47;30.90;1.00
2603;DHT22;1311;47.966;7.958;2023-07-08T16:39:14;30.90;1.00
2603;DHT22;1311;47.966;7.958;2023-07-08T16:41:42;30.80;1.00
2603;DHT22;1311;47.966;7.958;2023-07-08T16:44:13;30.80;1.00